Time;durP1;ratioP1;P1;durP2;ratioP2;P2;SDS_P1;SDS_P2;PMS_P1;PMS_P2;Temp;Humidity;BMP_temperature;BMP_pressure;BME280_temperature;BME280_humidity;BME280_pressure;Samples;Min_cycle;Max_cycle;Signal;HPM_P1;HPM_P2
2023/07/11 00:00:08;;;;;;;7.28;4.50;;;;;;;16.42;100.00;93599.63;5079518;28;20082;-74
2023/07/11 00:02:35;;;;;;;5.40;4.60;;;;;;;16.35;100.00;93599.78;5079706;28;20043;-74
2023/07/11 00:05:03;;;;;;;5.68;4.55;;;;;;;16.32;100.00;93600.25;5077582;28;20090;-74
2023/07/11 00:07:29;;;;;;;5.63;4.45;;;;;;;16.32;100.00;93596.84;5078636;28;20045;-74
2023/07/11 00:09:58;;;;;;;5.55;4.18;;;;;;;16.32;100.00;93602.84;5077821;28;20449;-74
2023/07/11 00:12:28;;;;;;;5.32;4.20;;;;;;;16.24;100.00;93598.06;5080195;28;20399;-73
2023/07/11 00:14:56;;;;;;;6.45;4.47;;;;;;;16.26;100.00;93598.59;5077561;28;20055;-74
2023/07/11 00:17:23;;;;;;;5.32;4.45;;;;;;;16.22;100.00;93602.66;5078965;28;20097;-74
2023/07/11 00:19:53;;;;;;;5.57;4.20;;;;;;;16.15;100.00;93590.66;5075944;28;20044;-73
2023/07/11 00:22:21;;;;;;;6.25;4.32;;;;;;;16.17;100.00;93598.19;5073314;28;20040;-73
2023/07/11 00:24:48;;;;;;;6.10;4.82;;;;;;;16.17;100.00;93600.78;5072288;28;20354;-73
2023/07/11 00:27:17;;;;;;;5.75;4.13;;;;;;;16.14;100.00;93598.66;5070638;28;20487;-73
2023/07/11 00:29:44;;;;;;;6.20;5.00;;;;;;;16.13;100.00;93595.31;5071033;28;20053;-74
2023/07/11 00:32:12;;;;;;;6.10;4.55;;;;;;;16.10;100.00;93593.16;5070772;28;20048;-74
2023/07/11 00:34:39;;;;;;;5.50;4.22;;;;;;;16.06;100.00;93594.63;5072680;28;21567;-74
2023/07/11 00:37:06;;;;;;;5.57;4.53;;;;;;;16.01;100.00;93586.78;5081615;28;20051;-74
2023/07/11 00:39:35;;;;;;;9.10;5.18;;;;;;;15.83;100.00;93554.88;5070924;28;20053;-73
2023/07/11 00:42:02;;;;;;;5.97;4.97;;;;;;;16.04;100.00;93581.16;5080814;28;20113;-74
2023/07/11 00:44:53;;;;;;;7.70;5.25;;;;;;;16.01;100.00;93581.59;5074506;28;20558;-74
2023/07/11 00:47:20;;;;;;;6.80;4.80;;;;;;;16.03;100.00;93572.56;5075761;28;20117;-74
2023/07/11 00:49:49;;;;;;;6.00;4.72;;;;;;;15.99;100.00;93566.31;5077203;28;20090;-74
2023/07/11 00:52:18;;;;;;;7.00;5.13;;;;;;;15.87;100.00;93560.34;5070739;28;20049;-74
2023/07/11 00:54:49;;;;;;;5.65;4.75;;;;;;;15.89;100.00;93571.28;5070110;28;20049;-73
2023/07/11 00:57:18;;;;;;;6.45;4.63;;;;;;;15.83;100.00;93575.59;5070112;28;20083;-73
2023/07/11 00:59:45;;;;;;;5.22;4.22;;;;;;;15.82;100.00;93573.22;5072719;28;20056;-73
2023/07/11 01:02:18;;;;;;;6.30;4.75;;;;;;;15.76;100.00;93573.16;5070114;28;20048;-74
2023/07/11 01:04:45;;;;;;;6.30;4.57;;;;;;;15.73;100.00;93576.19;5070016;28;20444;-74
2023/07/11 01:07:15;;;;;;;5.78;4.80;;;;;;;15.69;100.00;93577.69;5076372;28;20134;-74
2023/07/11 01:09:41;;;;;;;5.63;4.63;;;;;;;15.59;100.00;93572.31;5080428;28;20052;-74
2023/07/11 01:12:12;;;;;;;5.18;4.30;;;;;;;15.66;100.00;93570.38;5079306;28;20089;-74
2023/07/11 01:14:40;;;;;;;7.03;5.43;;;;;;;15.56;100.00;93572.78;5080621;28;20059;-74
2023/07/11 01:17:22;;;;;;;8.77;5.65;;;;;;;15.49;100.00;93554.81;5080434;28;20040;-74
2023/07/11 01:19:49;;;;;;;6.72;5.05;;;;;;;15.51;100.00;93563.13;5078816;28;20101;-73
2023/07/11 01:22:17;;;;;;;6.97;5.30;;;;;;;15.36;100.00;93535.94;5079391;28;20449;-81
2023/07/11 01:24:44;;;;;;;6.63;5.25;;;;;;;15.58;100.00;93560.38;5070685;28;20056;-74
2023/07/11 01:27:11;;;;;;;6.85;5.40;;;;;;;15.58;100.00;93561.19;5072352;28;20461;-76
2023/07/11 01:29:38;;;;;;;7.68;5.35;;;;;;;15.56;100.00;93565.78;5069791;28;20048;-76
2023/07/11 01:32:05;;;;;;;6.97;5.47;;;;;;;15.57;100.00;93567.38;5071039;28;20056;-75
2023/07/11 01:34:32;;;;;;;6.78;5.32;;;;;;;15.52;100.00;93562.13;5073403;28;20052;-75
2023/07/11 01:36:59;;;;;;;6.68;5.05;;;;;;;15.52;100.00;93558.72;5069748;28;20052;-75
2023/07/11 01:39:27;;;;;;;5.38;4.47;;;;;;;15.45;100.00;93548.50;5071973;28;20109;-75
2023/07/11 01:41:54;;;;;;;5.75;4.40;;;;;;;15.46;100.00;93553.47;5069761;28;20044;-75
2023/07/11 01:44:23;;;;;;;5.93;5.22;;;;;;;15.43;100.00;93559.13;5071601;28;20102;-75
2023/07/11 01:46:49;;;;;;;7.28;5.25;;;;;;;15.42;100.00;93565.28;5069093;28;20102;-75
2023/07/11 01:49:16;;;;;;;6.22;4.78;;;;;;;15.35;100.00;93556.88;5069499;28;20102;-75
2023/07/11 01:51:45;;;;;;;5.85;4.70;;;;;;;15.26;100.00;93547.91;5069370;28;20049;-75
2023/07/11 01:54:12;;;;;;;6.10;4.80;;;;;;;15.35;100.00;93546.53;5069421;28;20074;-74
2023/07/11 01:56:40;;;;;;;6.70;4.95;;;;;;;15.35;100.00;93552.50;5069201;28;20048;-74
2023/07/11 01:59:07;;;;;;;7.15;5.43;;;;;;;15.29;100.00;93556.00;5069227;28;20052;-74
2023/07/11 02:01:34;;;;;;;6.57;5.10;;;;;;;15.29;100.00;93558.59;5068905;28;20153;-75
2023/07/11 02:04:01;;;;;;;7.10;5.55;;;;;;;15.23;100.00;93546.56;5068186;28;20104;-75
2023/07/11 02:06:28;;;;;;;6.65;4.90;;;;;;;15.31;100.00;93558.34;5068972;28;21404;-75
2023/07/11 02:08:55;;;;;;;6.47;5.30;;;;;;;15.28;100.00;93561.41;5069222;28;20143;-75
2023/07/11 02:11:21;;;;;;;7.10;5.22;;;;;;;15.22;100.00;93558.72;5070715;28;20552;-75
2023/07/11 02:13:49;;;;;;;6.97;5.53;;;;;;;15.13;100.00;93549.75;5069254;28;20110;-75
2023/07/11 02:16:16;;;;;;;7.00;5.30;;;;;;;15.17;100.00;93561.22;5068531;28;20098;-75
2023/07/11 02:18:43;;;;;;;5.45;4.88;;;;;;;15.12;100.00;93558.53;5069193;28;20588;-75
2023/07/11 02:21:09;;;;;;;6.38;4.85;;;;;;;15.13;100.00;93557.50;5068632;28;20102;-75
2023/07/11 02:23:36;;;;;;;6.57;5.28;;;;;;;15.10;100.00;93555.38;5068690;28;20118;-75
2023/07/11 02:26:03;;;;;;;8.27;4.88;;;;;;;15.16;100.00;93561.44;5076522;28;20048;-75
2023/07/11 02:28:30;;;;;;;8.13;5.63;;;;;;;15.15;100.00;93562.44;5086974;28;20044;-75
2023/07/11 02:30:58;;;;;;;6.68;5.30;;;;;;;15.14;100.00;93556.47;5079583;28;20094;-75
2023/07/11 02:33:24;;;;;;;7.40;5.55;;;;;;;15.10;100.00;93561.31;5068540;28;20048;-75
2023/07/11 02:35:51;;;;;;;7.95;5.63;;;;;;;15.07;100.00;93559.22;5068459;28;20340;-75
2023/07/11 02:38:18;;;;;;;7.88;6.10;;;;;;;15.02;100.00;93555.72;5069920;28;20041;-75
2023/07/11 02:40:44;;;;;;;7.30;5.40;;;;;;;15.00;100.00;93555.19;5068346;28;20052;-75
2023/07/11 02:43:11;;;;;;;9.25;5.40;;;;;;;14.96;100.00;93547.88;5069548;28;20053;-76
2023/07/11 02:45:38;;;;;;;6.50;5.15;;;;;;;14.99;100.00;93549.22;5068156;28;20563;-76
2023/07/11 02:48:06;;;;;;;6.72;5.22;;;;;;;14.95;100.00;93554.06;5068400;28;20105;-75
2023/07/11 02:50:33;;;;;;;6.55;5.20;;;;;;;14.96;100.00;93560.03;5083021;28;20041;-75
2023/07/11 02:52:59;;;;;;;8.35;5.93;;;;;;;14.99;100.00;93548.44;5074514;28;20097;-76
2023/07/11 02:55:26;;;;;;;7.55;5.20;;;;;;;14.98;100.00;93541.66;5083641;28;20109;-76
2023/07/11 02:57:53;;;;;;;6.97;5.47;;;;;;;14.98;100.00;93541.66;5081482;28;20052;-75
2023/07/11 03:00:20;;;;;;;7.63;6.20;;;;;;;15.04;100.00;93548.53;5075481;28;20098;-76
2023/07/11 03:02:46;;;;;;;7.97;5.78;;;;;;;15.08;100.00;93547.03;5078708;28;20048;-76
2023/07/11 03:05:14;;;;;;;8.05;6.38;;;;;;;15.07;100.00;93548.88;5079316;28;20097;-75
2023/07/11 03:07:41;;;;;;;7.45;5.60;;;;;;;15.07;100.00;93554.03;5077684;28;20494;-75
2023/07/11 03:10:08;;;;;;;6.97;5.53;;;;;;;15.04;100.00;93554.47;5078072;28;20052;-75
2023/07/11 03:12:35;;;;;;;7.07;5.43;;;;;;;14.90;100.00;93538.44;5078724;28;20049;-75
2023/07/11 03:15:02;;;;;;;6.88;5.15;;;;;;;14.94;100.00;93554.28;5077201;28;20269;-76
2023/07/11 03:17:28;;;;;;;7.43;5.57;;;;;;;15.02;100.00;93559.09;5077225;28;20044;-75
2023/07/11 03:19:55;;;;;;;7.00;5.20;;;;;;;15.02;100.00;93561.69;5076460;28;20043;-74
2023/07/11 03:22:23;;;;;;;8.52;5.53;;;;;;;15.02;100.00;93559.09;5077787;28;20040;-74
2023/07/11 03:24:50;;;;;;;7.75;5.32;;;;;;;14.99;100.00;93564.72;5077966;28;20047;-74
2023/07/11 03:27:17;;;;;;;7.85;5.60;;;;;;;15.02;100.00;93558.31;5076120;28;20040;-74
2023/07/11 03:29:44;;;;;;;8.23;5.32;;;;;;;15.02;100.00;93560.91;5072054;28;20086;-74
2023/07/11 03:32:11;;;;;;;9.75;6.15;;;;;;;14.93;100.00;93550.13;5072040;28;20040;-74
2023/07/11 03:34:37;;;;;;;7.28;5.35;;;;;;;15.08;100.00;93571.13;5077966;28;20045;-74
2023/07/11 03:37:05;;;;;;;7.63;5.45;;;;;;;15.06;100.00;93570.59;5082280;28;20562;-74
2023/07/11 03:39:33;;;;;;;9.18;6.00;;;;;;;15.09;100.00;93569.34;5077096;28;20052;-74
2023/07/11 03:42:00;;;;;;;12.40;6.45;;;;;;;15.07;100.00;93561.81;5074299;28;20048;-75
2023/07/11 03:44:27;;;;;;;8.57;6.35;;;;;;;15.13;100.00;93556.72;5077874;28;20678;-74
2023/07/11 03:46:53;;;;;;;12.93;6.22;;;;;;;15.20;100.00;93565.13;5079452;28;20129;-74
2023/07/11 03:49:20;;;;;;;12.00;6.20;;;;;;;15.12;100.00;93555.94;5078328;28;20037;-75
2023/07/11 03:51:47;;;;;;;8.10;5.93;;;;;;;15.25;100.00;93565.25;5077878;28;20477;-74
2023/07/11 03:54:13;;;;;;;7.53;5.43;;;;;;;15.25;100.00;93567.03;5079109;28;20093;-75
2023/07/11 03:56:41;;;;;;;6.55;5.47;;;;;;;14.99;100.00;93535.50;5082692;28;20526;-75
2023/07/11 03:59:08;;;;;;;7.93;5.53;;;;;;;15.25;100.00;93567.03;5079126;28;20552;-75
2023/07/11 04:01:35;;;;;;;7.10;5.38;;;;;;;15.32;100.00;93563.28;5084813;28;20049;-75
2023/07/11 04:04:02;;;;;;;5.88;4.97;;;;;;;15.36;100.00;93555.84;5084690;28;20040;-75
2023/07/11 04:06:29;;;;;;;9.68;6.07;;;;;;;15.43;100.00;93566.09;5081634;28;20048;-74
2023/07/11 04:08:56;;;;;;;7.10;5.65;;;;;;;15.44;100.00;93562.47;5080834;28;20101;-74
2023/07/11 04:11:23;;;;;;;9.35;6.15;;;;;;;15.46;100.00;93563.03;5081545;28;20044;-74
2023/07/11 04:13:51;;;;;;;7.20;5.43;;;;;;;15.46;100.00;93558.63;5083340;28;20091;-75
2023/07/11 04:16:17;;;;;;;9.32;6.88;;;;;;;15.47;100.00;93554.25;5081875;28;20044;-75
2023/07/11 04:18:44;;;;;;;8.10;6.05;;;;;;;15.60;100.00;93568.72;5083531;28;20097;-75
2023/07/11 04:21:11;;;;;;;7.40;5.97;;;;;;;15.64;100.00;93559.47;5076708;28;20040;-75
2023/07/11 04:23:38;;;;;;;8.20;6.75;;;;;;;15.75;100.00;93565.63;5077962;28;20556;-75
2023/07/11 04:26:04;;;;;;;10.82;7.95;;;;;;;15.53;100.00;93568.06;5074477;28;20048;-75
2023/07/11 04:28:31;;;;;;;11.23;7.68;;;;;;;15.57;100.00;93566.59;5073756;28;20501;-75
2023/07/11 04:30:59;;;;;;;9.05;7.15;;;;;;;15.50;100.00;93556.38;5073020;28;20552;-75
2023/07/11 04:33:26;;;;;;;9.32;6.97;;;;;;;15.51;100.00;93570.91;5075968;28;20047;-75
2023/07/11 04:35:53;;;;;;;8.52;6.68;;;;;;;15.59;100.00;93567.94;5079768;28;20097;-75
2023/07/11 04:38:19;;;;;;;10.63;6.60;;;;;;;15.66;100.00;93572.19;5072313;28;20559;-75
2023/07/11 04:40:46;;;;;;;8.07;6.88;;;;;;;15.79;100.00;93578.88;5072510;28;20040;-75
2023/07/11 04:43:13;;;;;;;8.88;7.47;;;;;;;15.88;100.00;93577.50;5073618;28;20127;-75
2023/07/11 04:45:40;;;;;;;9.10;6.65;;;;;;;15.93;100.00;93576.81;5079622;28;20141;-75
2023/07/11 04:48:08;;;;;;;8.40;5.82;;;;;;;15.87;100.00;93550.00;5072285;28;20044;-75
2023/07/11 04:50:34;;;;;;;7.97;6.22;;;;;;;16.07;100.00;93587.66;5072764;28;20048;-75
2023/07/11 04:53:01;;;;;;;9.35;6.63;;;;;;;16.16;100.00;93584.44;5071470;28;20083;-75
2023/07/11 04:55:28;;;;;;;8.93;6.47;;;;;;;16.27;100.00;93577.63;5069797;28;20533;-75
2023/07/11 04:57:54;;;;;;;8.32;6.10;;;;;;;16.47;100.00;93584.13;5072428;28;20044;-75
2023/07/11 05:00:21;;;;;;;9.15;6.32;;;;;;;16.65;100.00;93580.50;5071411;28;20117;-75
2023/07/11 05:02:48;;;;;;;7.60;6.35;;;;;;;16.78;100.00;93576.78;5072480;28;20048;-75
2023/07/11 05:05:16;;;;;;;7.70;6.40;;;;;;;16.92;100.00;93579.84;5072046;28;20040;-75
2023/07/11 05:07:43;;;;;;;7.30;6.15;;;;;;;17.06;100.00;93582.91;5072481;28;20447;-75
2023/07/11 05:10:10;;;;;;;14.10;6.05;;;;;;;17.19;100.00;93591.34;5071591;28;20056;-75
2023/07/11 05:12:37;;;;;;;7.93;5.95;;;;;;;17.35;100.00;93587.91;5072203;28;20502;-75
2023/07/11 05:15:04;;;;;;;6.97;6.00;;;;;;;17.47;100.00;93584.38;5071988;28;20129;-75
2023/07/11 05:17:31;;;;;;;8.07;5.88;;;;;;;17.61;100.00;93579.59;5076004;28;20074;-75
2023/07/11 05:19:57;;;;;;;9.35;6.72;;;;;;;17.75;100.00;93588.59;5078896;28;20052;-75
2023/07/11 05:22:26;;;;;;;10.38;6.43;;;;;;;17.90;100.00;93589.75;5079063;28;20045;-75
2023/07/11 05:24:53;;;;;;;12.18;6.28;;;;;;;17.99;100.00;93583.09;5079889;28;20097;-75
2023/07/11 05:27:20;;;;;;;12.07;6.43;;;;;;;18.10;100.00;93585.81;5080407;28;20643;-75
2023/07/11 05:29:46;;;;;;;10.48;6.55;;;;;;;18.29;100.00;93594.78;5078616;28;20086;-75
2023/07/11 05:32:13;;;;;;;12.02;8.35;;;;;;;18.43;100.00;93600.34;5082804;28;20043;-75
2023/07/11 05:34:40;;;;;;;10.35;6.63;;;;;;;18.47;100.00;93587.63;5081324;28;20449;-75
2023/07/11 05:37:06;;;;;;;11.20;6.60;;;;;;;18.69;100.00;93597.94;5079384;28;20048;-75
2023/07/11 05:39:35;;;;;;;9.30;6.32;;;;;;;18.87;100.00;93610.78;5080720;28;20473;-75
2023/07/11 05:42:02;;;;;;;10.02;7.07;;;;;;;18.95;100.00;93599.91;5081344;28;20044;-75
2023/07/11 05:44:29;;;;;;;10.30;6.35;;;;;;;19.14;100.00;93602.91;5080020;28;20058;-75
2023/07/11 05:46:56;;;;;;;9.95;6.72;;;;;;;19.24;100.00;93586.53;5080598;28;20378;-75
2023/07/11 05:49:22;;;;;;;11.20;6.72;;;;;;;19.51;98.78;93598.63;5079494;28;20834;-75
2023/07/11 05:51:49;;;;;;;9.77;6.20;;;;;;;19.66;100.00;93594.50;5079641;28;20051;-75
2023/07/11 05:54:16;;;;;;;8.68;5.80;;;;;;;19.75;97.21;93585.13;5080973;28;20066;-75
2023/07/11 05:56:44;;;;;;;12.55;6.25;;;;;;;20.02;97.87;93592.78;5080940;28;20056;-75
2023/07/11 05:59:11;;;;;;;16.40;8.02;;;;;;;20.31;97.05;93585.50;5079363;28;20040;-75
2023/07/11 06:01:38;;;;;;;12.93;6.35;;;;;;;20.61;95.58;93589.91;5081058;28;20048;-75
2023/07/11 06:04:08;;;;;;;9.13;6.30;;;;;;;20.89;94.59;93574.75;5081535;28;20044;-75
2023/07/11 06:06:41;;;;;;;11.40;5.68;;;;;;;21.32;90.70;93584.00;5080503;28;20452;-75
2023/07/11 06:09:09;;;;;;;9.18;5.68;;;;;;;21.67;89.73;93581.50;5079270;28;20468;-75
2023/07/11 06:11:36;;;;;;;10.50;5.65;;;;;;;21.91;87.40;93575.63;5081968;28;20448;-75
2023/07/11 06:14:04;;;;;;;8.23;5.75;;;;;;;22.26;86.34;93582.44;5083375;28;20465;-75
2023/07/11 06:16:31;;;;;;;8.75;5.63;;;;;;;22.48;79.45;93586.44;5077606;28;20437;-75
2023/07/11 06:18:58;;;;;;;9.38;5.00;;;;;;;22.65;78.62;93593.13;5081354;28;20071;-75
2023/07/11 06:21:25;;;;;;;6.47;4.90;;;;;;;22.87;77.17;93597.13;5079736;28;20138;-75
2023/07/11 06:23:51;;;;;;;7.80;5.28;;;;;;;23.17;76.18;93598.66;5080098;28;20078;-75
2023/07/11 06:26:18;;;;;;;8.35;5.25;;;;;;;23.39;75.69;93593.97;5078620;28;20105;-75
2023/07/11 06:28:45;;;;;;;9.30;4.57;;;;;;;23.37;74.19;93602.09;5079995;28;20094;-75
2023/07/11 06:31:14;;;;;;;10.02;5.55;;;;;;;23.73;76.49;93601.69;5081001;28;20097;-75
2023/07/11 06:33:40;;;;;;;12.07;5.70;;;;;;;24.02;77.31;93590.25;5080097;28;20052;-75
2023/07/11 06:36:08;;;;;;;14.77;5.88;;;;;;;24.27;75.75;93590.19;5081031;28;20436;-75
2023/07/11 06:38:35;;;;;;;10.68;6.18;;;;;;;24.50;75.27;93592.97;5080165;28;20052;-75
2023/07/11 06:41:03;;;;;;;12.23;5.97;;;;;;;24.86;74.57;93589.78;5080798;28;20041;-76
2023/07/11 06:43:30;;;;;;;14.85;6.50;;;;;;;25.04;71.70;93585.50;5078687;28;20049;-75
2023/07/11 06:45:59;;;;;;;14.18;6.15;;;;;;;25.12;70.81;93589.28;5080540;28;20044;-76
2023/07/11 06:48:28;;;;;;;9.18;5.28;;;;;;;25.43;69.02;93595.81;5079895;28;20056;-75
2023/07/11 06:50:57;;;;;;;12.27;6.32;;;;;;;25.71;69.37;93587.91;5080305;28;20048;-75
2023/07/11 06:53:27;;;;;;;13.30;5.72;;;;;;;25.97;66.84;93590.75;5078601;28;20048;-76
2023/07/11 06:55:54;;;;;;;10.00;5.63;;;;;;;26.23;68.33;93581.50;5081105;28;20105;-75
2023/07/11 06:58:21;;;;;;;11.48;5.20;;;;;;;26.51;67.27;93581.38;5078817;28;20040;-75
2023/07/11 07:00:53;;;;;;;11.38;5.40;;;;;;;26.76;66.25;93579.97;5080414;28;20096;-75
2023/07/11 07:03:21;;;;;;;10.88;4.97;;;;;;;27.03;64.52;93593.31;5079141;28;20040;-76
2023/07/11 07:05:53;;;;;;;12.77;6.25;;;;;;;27.31;63.36;93587.81;5077242;28;20044;-76
2023/07/11 07:08:21;;;;;;;14.10;6.00;;;;;;;27.59;64.00;93591.00;5077589;28;20631;-75
2023/07/11 07:10:49;;;;;;;8.93;4.70;;;;;;;27.82;61.23;93588.22;5082308;28;20549;-76
2023/07/11 07:13:17;;;;;;;14.88;6.35;;;;;;;27.91;60.96;93590.13;5079543;28;20040;-75
2023/07/11 07:15:47;;;;;;;10.57;4.78;;;;;;;27.97;58.67;93597.59;5079325;28;20094;-76
2023/07/11 07:18:16;;;;;;;10.55;4.68;;;;;;;27.84;57.37;93601.13;5077987;28;20043;-76
2023/07/11 07:20:44;;;;;;;12.98;5.65;;;;;;;27.91;56.59;93603.31;5079270;28;20132;-75
2023/07/11 07:23:13;;;;;;;7.70;3.47;;;;;;;27.90;53.74;93591.22;5077544;28;20646;-75
2023/07/11 07:25:39;;;;;;;5.72;3.80;;;;;;;28.12;52.47;93598.97;5079079;28;20498;-75
2023/07/11 07:28:07;;;;;;;6.53;3.78;;;;;;;28.24;50.38;93598.34;5080036;28;20050;-75
2023/07/11 07:30:33;;;;;;;7.60;4.20;;;;;;;28.57;51.42;93593.66;5078913;28;20132;-75
2023/07/11 07:33:01;;;;;;;7.50;4.28;;;;;;;28.71;51.41;93594.25;5078771;28;20113;-76
2023/07/11 07:35:28;;;;;;;9.52;4.65;;;;;;;28.99;50.50;93593.09;5079375;28;20520;-76
2023/07/11 07:37:55;;;;;;;9.88;4.72;;;;;;;29.15;52.11;93593.38;5077876;28;20048;-75
2023/07/11 07:40:23;;;;;;;7.28;3.88;;;;;;;28.88;52.97;93585.50;5078504;28;20452;-75
2023/07/11 07:42:49;;;;;;;6.82;3.45;;;;;;;28.96;52.17;93597.16;5077823;28;20050;-75
2023/07/11 07:45:16;;;;;;;11.45;4.20;;;;;;;29.11;50.99;93593.19;5076812;28;20094;-76
2023/07/11 07:47:43;;;;;;;4.95;3.42;;;;;;;29.33;52.35;93583.44;5080623;28;20047;-75
2023/07/11 07:50:11;;;;;;;8.18;4.30;;;;;;;29.70;51.63;93596.19;5077093;28;20040;-75
2023/07/11 07:52:37;;;;;;;9.38;4.15;;;;;;;30.02;51.62;93595.84;5077040;28;20498;-76
2023/07/11 07:55:05;;;;;;;6.85;4.28;;;;;;;30.32;49.18;93599.19;5079927;28;20052;-76
2023/07/11 07:57:33;;;;;;;5.78;4.03;;;;;;;30.42;48.74;93600.66;5077039;28;20110;-75
2023/07/11 07:59:59;;;;;;;6.63;3.97;;;;;;;30.09;47.54;93594.22;5081493;28;20086;-75
2023/07/11 08:02:26;;;;;;;7.53;3.70;;;;;;;30.17;46.72;93592.59;5074592;28;20057;-75
2023/07/11 08:04:53;;;;;;;12.95;4.63;;;;;;;30.04;46.12;93593.63;5071136;28;20048;-76
2023/07/11 08:07:20;;;;;;;6.90;3.60;;;;;;;29.84;48.40;93588.78;5067256;28;20399;-75
2023/07/11 08:09:48;;;;;;;7.57;3.72;;;;;;;29.72;45.86;93592.13;5069047;28;20102;-76
2023/07/11 08:12:15;;;;;;;6.32;4.00;;;;;;;29.95;48.16;93583.84;5074691;28;20044;-75
2023/07/11 08:14:43;;;;;;;11.07;4.78;;;;;;;30.17;47.28;93587.31;5067479;28;20052;-76
2023/07/11 08:17:10;;;;;;;5.82;3.53;;;;;;;30.37;44.43;93590.25;5071071;28;20511;-75
2023/07/11 08:19:37;;;;;;;9.50;4.25;;;;;;;30.40;46.23;93594.88;5077652;28;20051;-76
2023/07/11 08:22:05;;;;;;;11.13;4.22;;;;;;;30.57;46.66;93588.66;5074372;28;20056;-76
2023/07/11 08:24:32;;;;;;;10.10;5.22;;;;;;;30.90;46.41;93585.22;5069739;28;20094;-76
2023/07/11 08:26:59;;;;;;;9.43;4.15;;;;;;;30.92;42.01;93590.94;5085382;28;20563;-75
2023/07/11 08:29:26;;;;;;;8.38;4.20;;;;;;;31.13;43.23;93595.41;5071704;28;20052;-76
2023/07/11 08:31:56;;;;;;;11.18;4.13;;;;;;;31.36;45.53;93581.72;5066709;28;20094;-76
2023/07/11 08:34:22;;;;;;;6.75;4.15;;;;;;;30.95;45.61;93594.06;5068283;28;20082;-76
2023/07/11 08:36:49;;;;;;;6.57;3.97;;;;;;;31.19;45.50;93586.13;5066673;28;20060;-76
2023/07/11 08:39:16;;;;;;;6.13;3.88;;;;;;;30.50;44.44;93577.81;5076257;28;20094;-76
2023/07/11 08:41:45;;;;;;;6.75;4.03;;;;;;;30.27;45.05;93592.19;5089231;28;20048;-76
2023/07/11 08:44:17;;;;;;;10.45;4.45;;;;;;;30.72;46.69;93578.56;5070526;28;20045;-76
2023/07/11 08:46:49;;;;;;;8.55;3.58;;;;;;;30.83;43.76;93582.34;5070969;28;20052;-75
2023/07/11 08:49:23;;;;;;;8.45;4.50;;;;;;;30.60;42.98;93577.41;5072933;28;20044;-75
2023/07/11 08:51:53;;;;;;;9.43;4.55;;;;;;;30.68;46.95;93573.09;5070709;28;20101;-77
2023/07/11 08:54:29;;;;;;;9.98;4.88;;;;;;;31.05;45.69;93565.22;5070275;28;20048;-76
2023/07/11 08:56:58;;;;;;;7.88;3.88;;;;;;;31.38;43.76;93578.75;5071981;28;20052;-76
2023/07/11 08:59:32;;;;;;;9.43;5.35;;;;;;;31.80;46.07;93583.00;5071757;28;20049;-76
2023/07/11 09:02:06;;;;;;;7.68;3.97;;;;;;;31.38;43.21;93570.78;5070327;28;20045;-77
2023/07/11 09:04:38;;;;;;;9.52;4.70;;;;;;;30.70;44.85;93546.28;5070520;28;20045;-77
2023/07/11 09:07:11;;;;;;;7.68;4.13;;;;;;;31.57;45.42;93572.84;5069609;28;20048;-77
2023/07/11 09:09:37;;;;;;;5.60;3.95;;;;;;;32.02;45.11;93576.41;5070685;28;20052;-77
2023/07/11 09:12:14;;;;;;;7.80;3.92;;;;;;;32.45;44.25;93576.06;5074163;28;20094;-77
2023/07/11 09:14:52;;;;;;;11.05;4.75;;;;;;;32.78;41.34;93573.06;5085605;28;20547;-77
2023/07/11 09:17:27;;;;;;;14.32;4.03;;;;;;;31.68;40.93;93581.91;5076581;28;20049;-76
2023/07/11 09:20:14;;;;;;;6.40;3.80;;;;;;;31.55;42.38;93573.19;5070063;28;20048;-77
2023/07/11 09:22:51;;;;;;;4.97;3.20;;;;;;;30.92;41.26;93575.03;5073701;28;20453;-77
2023/07/11 09:25:22;;;;;;;6.07;3.60;;;;;;;29.63;44.87;93567.59;5071248;28;20043;-77
2023/07/11 09:27:53;;;;;;;8.85;3.58;;;;;;;29.49;46.66;93569.69;5075344;28;20048;-77
2023/07/11 09:30:25;;;;;;;4.35;3.28;;;;;;;29.79;45.61;93562.50;5076647;28;20049;-77
2023/07/11 09:32:52;;;;;;;5.90;3.47;;;;;;;29.64;46.99;93563.84;5075623;28;20056;-77
2023/07/11 09:35:29;;;;;;;7.00;3.65;;;;;;;29.85;45.22;93561.19;5083470;28;20048;-77
2023/07/11 09:38:02;;;;;;;5.10;3.17;;;;;;;29.70;46.47;93564.41;5070028;28;20052;-77
2023/07/11 09:40:36;;;;;;;6.80;2.95;;;;;;;30.44;45.53;93564.00;5071731;28;20097;-77
2023/07/11 09:43:04;;;;;;;8.32;3.20;;;;;;;29.87;47.75;93572.25;5077804;28;20048;-77
2023/07/11 09:45:34;;;;;;;5.38;3.67;;;;;;;29.91;45.89;93571.59;5069335;28;20136;-77
2023/07/11 09:48:07;;;;;;;7.15;3.95;;;;;;;30.22;46.99;93555.31;5077069;28;20048;-76
2023/07/11 09:50:50;;;;;;;6.05;3.90;;;;;;;30.10;47.36;93564.00;5087697;28;20410;-76
2023/07/11 09:53:23;;;;;;;5.35;3.22;;;;;;;30.06;46.40;93563.06;5073624;28;20615;-77
2023/07/11 09:55:54;;;;;;;6.25;3.17;;;;;;;30.54;47.25;93554.84;5069209;28;20055;-77
2023/07/11 09:58:21;;;;;;;6.35;3.55;;;;;;;30.72;45.34;93541.44;5069510;28;20102;-77
2023/07/11 10:00:50;;;;;;;5.80;3.30;;;;;;;31.36;46.36;93546.44;5068586;28;20036;-77
2023/07/11 10:03:19;;;;;;;6.28;3.03;;;;;;;31.81;46.30;93552.66;5069333;28;20456;-78
2023/07/11 10:05:49;;;;;;;4.28;3.13;;;;;;;31.74;43.81;93558.53;5071400;28;20141;-77
2023/07/11 10:08:19;;;;;;;6.25;3.03;;;;;;;32.25;45.07;93546.66;5071439;28;20398;-77
2023/07/11 10:10:47;;;;;;;7.18;3.17;;;;;;;32.67;44.19;93556.09;5070416;28;20049;-77
2023/07/11 10:13:16;;;;;;;5.90;3.58;;;;;;;32.67;42.51;93532.16;5069226;28;20163;-78
2023/07/11 10:15:43;;;;;;;5.72;3.03;;;;;;;32.95;43.26;93551.81;5068632;28;20052;-78
2023/07/11 10:18:21;;;;;;;4.35;2.92;;;;;;;31.68;44.28;93549.25;5073022;28;20536;-77
2023/07/11 10:20:52;;;;;;;4.75;3.38;;;;;;;32.02;44.88;93552.50;5068745;28;20052;-78
2023/07/11 10:23:24;;;;;;;5.40;3.20;;;;;;;32.01;45.26;93552.84;5072761;28;20063;-77
2023/07/11 10:25:53;;;;;;;4.40;2.88;;;;;;;32.47;44.49;93547.22;5069014;28;20048;-77
2023/07/11 10:28:27;;;;;;;6.07;2.78;;;;;;;32.09;45.01;93550.06;5068507;28;20041;-78
2023/07/11 10:30:56;;;;;;;6.88;2.92;;;;;;;31.36;44.03;93546.44;5080980;28;20467;-77
2023/07/11 10:33:28;;;;;;;5.95;3.50;;;;;;;31.55;45.71;93541.31;5068961;28;20106;-77
2023/07/11 10:36:15;;;;;;;5.47;3.13;;;;;;;32.00;46.17;93536.13;5068411;28;20521;-77
2023/07/11 10:38:49;;;;;;;3.85;3.00;;;;;;;32.33;45.20;93536.97;5069912;28;20135;-77
2023/07/11 10:41:21;;;;;;;4.65;3.38;;;;;;;32.28;44.46;93543.31;5068643;28;20098;-77
2023/07/11 10:43:51;;;;;;;5.40;3.28;;;;;;;32.91;45.08;93544.50;5068016;28;20144;-77
2023/07/11 10:46:31;;;;;;;6.80;3.20;;;;;;;32.60;44.30;93548.72;5070186;28;20045;-77
2023/07/11 10:49:06;;;;;;;5.38;3.05;;;;;;;33.15;43.71;93536.72;5067955;28;20494;-77
2023/07/11 10:51:39;;;;;;;4.68;3.17;;;;;;;32.97;41.64;93529.09;5069265;28;20053;-77
2023/07/11 10:54:13;;;;;;;5.20;3.78;;;;;;;32.52;45.52;93526.50;5068778;28;20049;-77
2023/07/11 10:56:43;;;;;;;5.43;3.22;;;;;;;33.02;45.03;93528.84;5068276;28;20494;-77
2023/07/11 10:59:13;;;;;;;3.90;2.72;;;;;;;32.72;43.47;93525.81;5074894;28;20057;-77
2023/07/11 11:01:49;;;;;;;5.22;3.17;;;;;;;32.92;44.63;93516.78;5072608;28;20049;-77
2023/07/11 11:04:31;;;;;;;4.13;3.10;;;;;;;32.96;45.36;93522.22;5069500;28;20045;-77
2023/07/11 11:07:03;;;;;;;3.85;2.83;;;;;;;33.11;40.16;93509.25;5077155;28;20044;-77
2023/07/11 11:09:39;;;;;;;6.00;3.42;;;;;;;33.47;41.81;93520.69;5072637;28;20060;-77
2023/07/11 11:12:19;;;;;;;5.28;3.20;;;;;;;32.64;43.90;93485.75;5070449;28;20520;-77
2023/07/11 11:14:52;;;;;;;5.97;3.40;;;;;;;32.42;42.49;93516.38;5076380;28;20044;-77
2023/07/11 11:17:33;;;;;;;7.03;3.25;;;;;;;32.15;45.30;93486.03;5077244;28;20051;-77
2023/07/11 11:20:13;;;;;;;8.45;3.58;;;;;;;33.09;44.40;93508.81;5070561;28;20538;-78
2023/07/11 11:22:53;;;;;;;5.68;3.25;;;;;;;33.17;42.81;93508.63;5071972;28;20051;-77
2023/07/11 11:25:26;;;;;;;6.07;3.28;;;;;;;33.68;44.07;93507.06;5072334;28;20040;-77
2023/07/11 11:28:05;;;;;;;6.13;3.30;;;;;;;34.25;42.56;93503.94;5071163;28;20040;-77
2023/07/11 11:30:42;;;;;;;5.07;3.20;;;;;;;34.69;40.59;93496.69;5073793;28;20048;-77
2023/07/11 11:33:29;;;;;;;6.68;3.05;;;;;;;34.97;41.25;93484.91;5068414;28;20044;-77